Time;durP1;ratioP1;P1;durP2;ratioP2;P2;SDS_P1;SDS_P2;PMS_P1;PMS_P2;Temp;Humidity;BMP_temperature;BMP_pressure;BME280_temperature;BME280_humidity;BME280_pressure;Samples;Min_cycle;Max_cycle;Signal;HPM_P1;HPM_P2
2023/12/28 00:00:22;;;;;;;3.00;2.67;;;;;;;2.55;100.00;97409.94;5066950;28;20829;-79
2023/12/28 00:02:48;;;;;;;2.92;2.63;;;;;;;2.58;100.00;97415.56;5056754;28;20446;-80
2023/12/28 00:05:16;;;;;;;2.95;2.65;;;;;;;2.61;100.00;97409.94;5057482;28;20826;-79
2023/12/28 00:07:42;;;;;;;4.28;2.78;;;;;;;2.61;100.00;97412.56;5060121;28;20401;-79
2023/12/28 00:10:09;;;;;;;3.20;2.60;;;;;;;2.61;100.00;97412.56;5072880;28;20411;-79
2023/12/28 00:12:35;;;;;;;3.50;2.70;;;;;;;2.62;100.00;97423.81;5075966;28;20395;-81
2023/12/28 00:15:01;;;;;;;4.25;2.78;;;;;;;2.60;100.00;97437.06;5075562;28;20434;-79
2023/12/28 00:17:27;;;;;;;3.80;2.60;;;;;;;2.57;100.00;97439.25;5069322;28;20417;-79
2023/12/28 00:19:54;;;;;;;4.60;2.80;;;;;;;2.55;100.00;97426.41;5056328;28;20436;-79
2023/12/28 00:22:22;;;;;;;3.28;2.80;;;;;;;2.56;100.00;97428.00;5061616;28;20440;-79
2023/12/28 00:24:48;;;;;;;2.90;2.60;;;;;;;2.60;100.00;97429.22;5054652;28;20454;-80
2023/12/28 00:27:14;;;;;;;2.83;2.63;;;;;;;2.64;100.00;97440.06;5055628;28;20960;-80
2023/12/28 00:29:41;;;;;;;2.95;2.63;;;;;;;2.63;100.00;97435.88;5055029;28;20940;-79
2023/12/28 00:32:07;;;;;;;3.10;2.65;;;;;;;2.60;100.00;97437.06;5055279;28;20397;-80
2023/12/28 00:34:33;;;;;;;3.20;2.58;;;;;;;2.60;100.00;97442.31;5054956;28;20454;-80
2023/12/28 00:36:59;;;;;;;3.63;2.33;;;;;;;2.61;100.00;97448.34;5061683;28;20413;-80
2023/12/28 00:39:27;;;;;;;2.50;2.30;;;;;;;2.58;100.00;97449.53;5074778;28;20807;-81
2023/12/28 00:41:53;;;;;;;3.00;2.60;;;;;;;2.59;100.00;97447.72;5074407;28;20399;-79
2023/12/28 00:44:19;;;;;;;2.58;2.38;;;;;;;2.57;100.00;97447.91;5075364;28;20384;-80
2023/12/28 00:46:45;;;;;;;3.58;2.90;;;;;;;2.54;100.00;97458.78;5075250;28;20414;-80
2023/12/28 00:49:11;;;;;;;3.30;2.83;;;;;;;2.49;100.00;97452.50;5074808;28;20475;-81
2023/12/28 00:51:38;;;;;;;3.47;2.77;;;;;;;2.43;100.00;97450.69;5055445;28;20429;-79
2023/12/28 00:54:04;;;;;;;2.95;2.60;;;;;;;2.36;100.00;97442.84;5053428;28;20409;-79
2023/12/28 00:56:31;;;;;;;3.10;2.67;;;;;;;2.32;100.00;97444.25;5053487;28;20463;-79
2023/12/28 00:58:57;;;;;;;4.30;2.83;;;;;;;2.27;100.00;97438.81;5068234;28;20486;-80
2023/12/28 01:01:23;;;;;;;2.83;2.53;;;;;;;2.22;100.00;97441.22;5053370;28;20396;-80
2023/12/28 01:03:50;;;;;;;3.40;2.70;;;;;;;2.15;100.00;97445.59;5053618;28;20402;-79
2023/12/28 01:06:16;;;;;;;3.43;2.70;;;;;;;2.09;100.00;97449.81;5053924;28;20396;-79
2023/12/28 01:08:42;;;;;;;3.92;2.90;;;;;;;2.03;100.00;97455.78;5053757;28;20405;-79
2023/12/28 01:11:10;;;;;;;3.75;2.90;;;;;;;1.99;100.00;97456.38;5060605;28;20400;-79
2023/12/28 01:13:37;;;;;;;3.83;2.75;;;;;;;1.94;100.00;97456.97;5057629;28;20494;-79
2023/12/28 01:16:04;;;;;;;3.67;2.90;;;;;;;1.89;100.00;97454.13;5053553;28;20508;-79
2023/12/28 01:18:30;;;;;;;2.72;2.50;;;;;;;1.85;100.00;97465.97;5052837;28;20952;-80
2023/12/28 01:20:56;;;;;;;2.72;2.53;;;;;;;1.81;100.00;97472.56;5066652;28;20403;-80
2023/12/28 01:23:23;;;;;;;3.10;2.63;;;;;;;1.74;100.00;97477.75;5059846;28;20398;-79
2023/12/28 01:25:49;;;;;;;3.70;2.97;;;;;;;1.70;100.00;97471.31;5054528;28;20384;-79
2023/12/28 01:28:15;;;;;;;3.22;2.80;;;;;;;1.68;100.00;97464.66;5066341;28;20404;-80
2023/12/28 01:30:43;;;;;;;6.10;3.30;;;;;;;1.67;100.00;97470.88;5073013;28;20425;-79
2023/12/28 01:33:10;;;;;;;3.83;3.03;;;;;;;1.64;100.00;97471.28;5055563;28;20466;-80
2023/12/28 01:35:37;;;;;;;3.28;2.95;;;;;;;1.62;100.00;97465.44;5052683;28;20403;-80
2023/12/28 01:38:03;;;;;;;3.97;3.15;;;;;;;1.60;100.00;97478.69;5052744;28;20456;-80
2023/12/28 01:40:29;;;;;;;3.20;2.73;;;;;;;1.59;100.00;97479.66;5052806;28;20502;-79
2023/12/28 01:42:55;;;;;;;2.70;2.50;;;;;;;1.53;100.00;97490.88;5052506;28;20396;-80
2023/12/28 01:45:21;;;;;;;2.78;2.58;;;;;;;1.47;100.00;97494.25;5053077;28;20463;-80
2023/12/28 01:47:50;;;;;;;3.28;2.80;;;;;;;1.40;100.00;97499.44;5052722;28;20416;-80
2023/12/28 01:50:17;;;;;;;3.70;3.03;;;;;;;1.37;100.00;97499.00;5053882;28;20889;-81
2023/12/28 01:52:43;;;;;;;3.00;2.70;;;;;;;1.33;100.00;97500.38;5055795;28;20385;-82
2023/12/28 01:55:09;;;;;;;3.38;2.60;;;;;;;1.32;100.00;97504.78;5074973;28;20404;-82
2023/12/28 01:57:36;;;;;;;3.60;3.00;;;;;;;1.31;100.00;97499.75;5077840;28;20478;-81
2023/12/28 02:00:03;;;;;;;3.08;2.72;;;;;;;1.31;100.00;97491.94;5074912;28;20392;-81
2023/12/28 02:02:31;;;;;;;3.05;2.75;;;;;;;1.28;100.00;97492.31;5075323;28;20423;-81
2023/12/28 02:04:59;;;;;;;3.40;2.80;;;;;;;1.28;100.00;97500.16;5075932;28;20400;-81
2023/12/28 02:07:27;;;;;;;2.70;2.50;;;;;;;1.27;100.00;97506.34;5074108;28;20396;-80
2023/12/28 02:09:53;;;;;;;3.05;2.75;;;;;;;1.24;100.00;97523.16;5073806;28;20400;-80
2023/12/28 02:12:19;;;;;;;3.60;2.80;;;;;;;1.19;100.00;97525.53;5052946;28;20413;-80
2023/12/28 02:14:46;;;;;;;3.20;2.85;;;;;;;1.16;100.00;97524.13;5051891;28;20897;-80
2023/12/28 02:17:16;;;;;;;3.25;2.80;;;;;;;1.14;100.00;97533.91;5052556;28;20854;-81
2023/12/28 02:19:49;;;;;;;5.17;3.00;;;;;;;1.16;100.00;97521.50;5067202;28;20399;-81
2023/12/28 02:22:18;;;;;;;3.45;2.90;;;;;;;1.16;100.00;97529.31;5058356;28;20401;-81
2023/12/28 02:25:13;;;;;;;2.80;2.50;;;;;;;1.15;100.00;97538.13;5051839;28;20459;-80
2023/12/28 02:27:42;;;;;;;3.10;2.70;;;;;;;1.11;100.00;97516.06;5052033;28;20405;-81
2023/12/28 02:30:10;;;;;;;3.17;2.88;;;;;;;1.10;100.00;97513.63;5051418;28;20838;-81
2023/12/28 02:32:47;;;;;;;3.38;2.88;;;;;;;1.07;100.00;97521.81;5060224;28;20403;-81
2023/12/28 02:35:21;;;;;;;2.90;2.60;;;;;;;1.04;100.00;97523.00;5071849;28;20476;-80
2023/12/28 02:37:52;;;;;;;4.20;2.92;;;;;;;1.01;100.00;97512.16;5047775;28;20412;-81
2023/12/28 02:40:20;;;;;;;3.17;2.70;;;;;;;1.01;100.00;97518.16;5073972;28;20403;-80
2023/12/28 02:42:47;;;;;;;2.72;2.53;;;;;;;1.01;100.00;97505.13;5077727;28;20395;-81
2023/12/28 02:45:13;;;;;;;3.25;2.95;;;;;;;1.01;100.00;97512.94;5077446;28;20399;-81
2023/12/28 02:47:39;;;;;;;3.22;2.67;;;;;;;1.00;100.00;97510.53;5072396;28;20521;-81
2023/12/28 02:50:07;;;;;;;2.60;2.40;;;;;;;0.99;100.00;97516.72;5068477;28;20392;-82
2023/12/28 02:52:33;;;;;;;3.03;2.70;;;;;;;0.98;100.00;97520.31;5081366;28;20392;-81
2023/12/28 02:54:59;;;;;;;3.95;2.75;;;;;;;1.01;100.00;97509.53;5080899;28;20893;-81
2023/12/28 02:57:26;;;;;;;3.20;2.90;;;;;;;1.03;100.00;97526.63;5059329;28;20906;-80
2023/12/28 02:59:53;;;;;;;4.07;3.20;;;;;;;1.08;100.00;97508.59;5055505;28;20436;-80
2023/12/28 03:02:19;;;;;;;5.47;3.50;;;;;;;1.11;100.00;97513.44;5055267;28;20480;-81
2023/12/28 03:04:45;;;;;;;3.40;2.92;;;;;;;1.17;100.00;97511.88;5054890;28;20430;-80
2023/12/28 03:07:11;;;;;;;2.80;2.60;;;;;;;1.19;100.00;97507.28;5054958;28;20802;-80
2023/12/28 03:09:38;;;;;;;2.92;2.63;;;;;;;1.18;100.00;97505.69;5062287;28;20811;-81
2023/12/28 03:12:06;;;;;;;3.13;2.50;;;;;;;1.20;100.00;97510.72;5075339;28;20395;-82
2023/12/28 03:14:33;;;;;;;3.53;2.67;;;;;;;1.18;100.00;97503.06;5075113;28;20388;-81
2023/12/28 03:16:59;;;;;;;3.20;2.90;;;;;;;1.20;100.00;97505.50;5075006;28;20447;-80
2023/12/28 03:19:25;;;;;;;2.97;2.65;;;;;;;1.21;100.00;97507.09;5074325;28;20464;-80
2023/12/28 03:21:51;;;;;;;3.47;2.90;;;;;;;1.22;100.00;97511.31;5058859;28;20871;-80
2023/12/28 03:24:17;;;;;;;2.90;2.70;;;;;;;1.23;100.00;97511.13;5055030;28;20397;-81
2023/12/28 03:26:44;;;;;;;2.83;2.63;;;;;;;1.25;100.00;97509.16;5058403;28;20410;-80
2023/12/28 03:29:10;;;;;;;3.55;2.90;;;;;;;1.27;100.00;97514.19;5064867;28;20396;-81
2023/12/28 03:31:40;;;;;;;2.47;2.28;;;;;;;1.30;100.00;97517.19;5064073;28;20418;-81
2023/12/28 03:34:06;;;;;;;3.08;2.78;;;;;;;1.31;100.00;97513.59;5069646;28;20471;-81
2023/12/28 03:36:32;;;;;;;2.80;2.60;;;;;;;1.35;100.00;97509.63;5074397;28;20403;-80
2023/12/28 03:38:59;;;;;;;2.90;2.63;;;;;;;1.38;100.00;97516.25;5075163;28;20395;-80
2023/12/28 03:41:25;;;;;;;3.00;2.65;;;;;;;1.40;100.00;97507.25;5074415;28;20426;-81
2023/12/28 03:43:51;;;;;;;3.25;2.70;;;;;;;1.42;100.00;97505.28;5060659;28;20520;-80
2023/12/28 03:46:17;;;;;;;4.00;2.97;;;;;;;1.51;100.00;97498.06;5054553;28;20390;-80
2023/12/28 03:48:44;;;;;;;3.40;2.60;;;;;;;1.54;100.00;97495.09;5054367;28;20401;-80
2023/12/28 03:51:15;;;;;;;2.88;2.67;;;;;;;1.56;100.00;97485.28;5056642;28;20400;-81
2023/12/28 03:53:41;;;;;;;2.38;2.17;;;;;;;1.54;100.00;97476.84;5056021;28;20427;-80
2023/12/28 03:56:08;;;;;;;2.78;2.42;;;;;;;1.53;100.00;97483.84;5054070;28;20947;-81
2023/12/28 03:58:34;;;;;;;2.70;2.50;;;;;;;1.52;100.00;97476.22;5053670;28;20869;-82
2023/12/28 04:01:00;;;;;;;2.60;2.20;;;;;;;1.52;100.00;97478.81;5054177;28;20401;-81
2023/12/28 04:03:26;;;;;;;2.50;2.30;;;;;;;1.52;100.00;97469.19;5058073;28;20451;-81
2023/12/28 04:05:54;;;;;;;2.90;2.60;;;;;;;1.55;100.00;97461.00;5064796;28;20404;-81
2023/12/28 04:08:20;;;;;;;3.08;2.53;;;;;;;1.59;100.00;97471.84;5061117;28;20492;-81
2023/12/28 04:10:46;;;;;;;3.45;2.78;;;;;;;1.62;100.00;97468.06;5064086;28;20497;-81
2023/12/28 04:13:12;;;;;;;2.70;2.50;;;;;;;1.63;100.00;97470.47;5073617;28;20395;-81
2023/12/28 04:15:42;;;;;;;3.00;2.60;;;;;;;1.64;100.00;97469.47;5073314;28;20428;-81
2023/12/28 04:18:09;;;;;;;3.55;2.50;;;;;;;1.67;100.00;97474.31;5075890;28;20456;-82
2023/12/28 04:20:35;;;;;;;3.22;2.83;;;;;;;1.70;100.00;97481.75;5064830;28;20401;-81
2023/12/28 04:23:02;;;;;;;3.08;2.78;;;;;;;1.74;100.00;97487.38;5056956;28;20409;-80
2023/12/28 04:25:28;;;;;;;3.50;3.20;;;;;;;1.75;100.00;97479.38;5053300;28;20442;-80
2023/12/28 04:27:55;;;;;;;3.10;2.80;;;;;;;1.83;100.00;97473.19;5053217;28;20408;-80
2023/12/28 04:30:21;;;;;;;3.00;2.73;;;;;;;1.86;100.00;97475.41;5058829;28;20482;-80
2023/12/28 04:32:47;;;;;;;3.08;2.55;;;;;;;1.90;100.00;97466.19;5072995;28;20867;-80
2023/12/28 04:35:14;;;;;;;2.92;2.40;;;;;;;1.94;100.00;97473.44;5072588;28;20768;-80
2023/12/28 04:37:40;;;;;;;4.22;2.63;;;;;;;2.02;100.00;97469.06;5068160;28;20913;-80
2023/12/28 04:40:09;;;;;;;3.42;2.30;;;;;;;2.06;100.00;97467.66;5062910;28;20441;-80
2023/12/28 04:42:35;;;;;;;2.80;2.60;;;;;;;2.09;100.00;97468.09;5072693;28;20760;-80
2023/12/28 04:45:01;;;;;;;2.63;2.40;;;;;;;2.12;100.00;97464.25;5072797;28;20396;-79
2023/12/28 04:47:27;;;;;;;2.78;2.35;;;;;;;2.13;100.00;97458.84;5073023;28;20441;-80
2023/12/28 04:49:54;;;;;;;2.57;2.30;;;;;;;2.15;100.00;97448.22;5072524;28;20906;-80
2023/12/28 04:52:20;;;;;;;2.75;2.55;;;;;;;2.17;100.00;97451.44;5072563;28;20752;-80
2023/12/28 04:54:46;;;;;;;2.53;2.33;;;;;;;2.14;100.00;97444.81;5072495;28;20764;-80
2023/12/28 04:57:14;;;;;;;3.22;2.90;;;;;;;2.12;100.00;97445.97;5072399;28;20502;-80
2023/12/28 04:59:40;;;;;;;3.33;2.80;;;;;;;2.10;100.00;97450.63;5072435;28;20915;-80
2023/12/28 05:02:07;;;;;;;3.78;2.70;;;;;;;2.09;100.00;97456.84;5064935;28;20404;-81
2023/12/28 05:04:33;;;;;;;3.40;2.70;;;;;;;2.11;100.00;97457.44;5042903;28;20436;-82
2023/12/28 05:06:59;;;;;;;3.15;2.80;;;;;;;2.13;100.00;97456.25;5068886;28;20880;-80
2023/12/28 05:09:25;;;;;;;2.60;2.40;;;;;;;2.15;100.00;97467.31;5072244;28;20430;-81
2023/12/28 05:11:51;;;;;;;2.65;2.45;;;;;;;2.14;100.00;97473.53;5072016;28;20479;-79
2023/12/28 05:14:19;;;;;;;2.87;2.53;;;;;;;2.13;100.00;97471.91;5072372;28;20427;-80
2023/12/28 05:16:45;;;;;;;3.90;2.78;;;;;;;2.13;100.00;97465.88;5072650;28;20429;-81
2023/12/28 05:19:11;;;;;;;2.72;2.50;;;;;;;2.12;100.00;97472.91;5072486;28;20407;-80
2023/12/28 05:21:39;;;;;;;3.65;2.70;;;;;;;2.14;100.00;97462.28;5072931;28;20459;-80
2023/12/28 05:24:05;;;;;;;3.38;2.47;;;;;;;2.17;100.00;97464.50;5073133;28;20408;-81
2023/12/28 05:26:31;;;;;;;3.03;2.55;;;;;;;2.20;100.00;97470.13;5060908;28;20401;-80
2023/12/28 05:28:57;;;;;;;2.58;2.38;;;;;;;2.23;100.00;97468.94;5068468;28;20482;-81
2023/12/28 05:31:25;;;;;;;2.63;2.30;;;;;;;2.26;100.00;97460.69;5072352;28;20888;-81
2023/12/28 05:33:51;;;;;;;6.47;4.20;;;;;;;2.28;100.00;97469.94;5072928;28;21024;-81
2023/12/28 05:36:17;;;;;;;6.45;4.32;;;;;;;2.32;100.00;97481.63;5072880;28;20399;-82
2023/12/28 05:38:43;;;;;;;5.07;3.85;;;;;;;2.39;100.00;97488.69;5073066;28;20408;-81
2023/12/28 05:41:11;;;;;;;5.50;3.90;;;;;;;2.46;100.00;97497.34;5072846;28;20396;-81
2023/12/28 05:43:37;;;;;;;4.25;3.15;;;;;;;2.49;100.00;97499.53;5073008;28;20448;-81
2023/12/28 05:46:03;;;;;;;4.10;2.90;;;;;;;2.50;100.00;97495.94;5069970;28;20392;-81
2023/12/28 05:48:31;;;;;;;3.55;2.80;;;;;;;2.50;100.00;97495.94;5059947;28;20417;-81
2023/12/28 05:51:00;;;;;;;3.45;2.80;;;;;;;2.58;100.00;97498.38;5065973;28;20749;-81
2023/12/28 05:53:27;;;;;;;3.00;2.70;;;;;;;2.71;100.00;97501.00;5076619;28;20400;-82
2023/12/28 05:55:53;;;;;;;2.58;2.38;;;;;;;2.80;100.00;97504.22;5076619;28;20403;-82
2023/12/28 05:58:19;;;;;;;2.50;2.30;;;;;;;2.83;100.00;97507.28;5070359;28;20445;-82
2023/12/28 06:00:48;;;;;;;3.58;2.60;;;;;;;2.88;100.00;97509.28;5066361;28;20400;-81
2023/12/28 06:03:14;;;;;;;2.83;2.22;;;;;;;2.94;100.00;97503.25;5088247;28;20415;-82
2023/12/28 06:05:42;;;;;;;2.83;2.20;;;;;;;2.98;100.00;97510.50;5085634;28;20399;-82
2023/12/28 06:08:08;;;;;;;2.42;2.20;;;;;;;3.02;100.00;97503.06;5083844;28;20404;-82
2023/12/28 06:10:35;;;;;;;2.33;2.13;;;;;;;3.03;100.00;97513.31;5070912;28;20398;-83
2023/12/28 06:13:01;;;;;;;2.20;2.00;;;;;;;3.07;100.00;97525.00;5057012;28;20417;-82
2023/12/28 06:15:27;;;;;;;2.22;2.03;;;;;;;3.08;100.00;97523.19;5055321;28;20401;-81
2023/12/28 06:17:53;;;;;;;2.40;2.20;;;;;;;3.09;100.00;97528.22;5051848;28;20429;-81
2023/12/28 06:20:19;;;;;;;2.17;1.98;;;;;;;3.11;100.00;97535.84;5060187;28;20399;-81
2023/12/28 06:22:48;;;;;;;2.47;2.28;;;;;;;3.15;100.00;97546.75;5072990;28;20804;-81
2023/12/28 06:25:15;;;;;;;3.05;2.35;;;;;;;3.22;100.00;97540.50;5076523;28;20399;-81
2023/12/28 06:27:41;;;;;;;2.78;2.30;;;;;;;3.31;100.00;97544.50;5066402;28;20500;-81
2023/12/28 06:30:08;;;;;;;3.15;2.70;;;;;;;3.41;100.00;97539.69;5062512;28;20392;-81
2023/12/28 06:32:34;;;;;;;2.15;1.95;;;;;;;3.53;100.00;97528.63;5080004;28;20392;-81
2023/12/28 06:35:00;;;;;;;2.58;2.20;;;;;;;3.63;100.00;97521.97;5075814;28;20414;-81
2023/12/28 06:37:26;;;;;;;4.63;2.30;;;;;;;3.72;100.00;97520.75;5056200;28;20412;-81
2023/12/28 06:39:54;;;;;;;2.07;1.97;;;;;;;3.78;100.00;97522.53;5055349;28;20543;-80
2023/12/28 06:42:20;;;;;;;3.30;2.28;;;;;;;3.85;100.00;97531.19;5055039;28;20495;-80
2023/12/28 06:44:46;;;;;;;3.08;2.25;;;;;;;3.94;100.00;97538.81;5056060;28;20425;-80
2023/12/28 06:47:13;;;;;;;2.55;2.10;;;;;;;4.00;100.00;97544.03;5060229;28;20406;-83
2023/12/28 06:49:39;;;;;;;3.03;2.08;;;;;;;4.09;100.00;97545.44;5065284;28;20389;-84
2023/12/28 06:52:05;;;;;;;2.35;2.00;;;;;;;4.17;100.00;97554.88;5065731;28;20405;-83
2023/12/28 06:54:31;;;;;;;3.08;2.40;;;;;;;4.23;100.00;97538.34;5071417;28;20725;-82
2023/12/28 06:56:59;;;;;;;3.10;2.28;;;;;;;4.27;100.00;97545.59;5068034;28;20397;-82
2023/12/28 06:59:25;;;;;;;2.70;2.20;;;;;;;4.34;100.00;97532.47;5056724;28;20433;-81
2023/12/28 07:01:51;;;;;;;2.20;2.00;;;;;;;4.39;100.00;97542.31;5055392;28;20396;-83
2023/12/28 07:04:17;;;;;;;3.67;2.50;;;;;;;4.41;100.00;97543.72;5056460;28;20472;-84
2023/12/28 07:06:43;;;;;;;2.45;2.20;;;;;;;4.46;100.00;97537.84;5060173;28;20403;-83
2023/12/28 07:09:10;;;;;;;2.67;1.98;;;;;;;4.52;100.00;97544.88;5052623;28;20399;-84
2023/12/28 07:11:36;;;;;;;2.35;2.10;;;;;;;4.59;100.00;97550.88;5065651;28;21040;-84
2023/12/28 07:14:03;;;;;;;2.33;2.13;;;;;;;4.63;100.00;97554.72;5064066;28;20429;-82
2023/12/28 07:16:29;;;;;;;3.10;2.35;;;;;;;4.62;100.00;97540.81;5065776;28;20432;-82
2023/12/28 07:18:56;;;;;;;2.47;2.28;;;;;;;4.66;100.00;97549.06;5065172;28;20440;-82
2023/12/28 07:21:22;;;;;;;2.13;1.83;;;;;;;4.66;100.00;97556.94;5056961;28;20405;-82
2023/12/28 07:23:49;;;;;;;2.00;1.83;;;;;;;4.64;100.00;97564.19;5054331;28;20966;-83
2023/12/28 07:26:16;;;;;;;2.45;1.85;;;;;;;4.62;100.00;97560.97;5058411;28;20766;-83
2023/12/28 07:28:44;;;;;;;2.33;2.10;;;;;;;4.59;100.00;97559.56;5055888;28;20390;-84
2023/12/28 07:31:21;;;;;;;2.08;1.88;;;;;;;4.60;100.00;97561.16;5068115;28;20400;-83
2023/12/28 07:33:47;;;;;;;2.27;1.97;;;;;;;4.63;100.00;97567.81;5070631;28;20403;-84
2023/12/28 07:36:14;;;;;;;2.78;2.10;;;;;;;4.64;100.00;97572.88;5072447;28;20399;-84
2023/12/28 07:38:40;;;;;;;3.53;2.10;;;;;;;4.66;100.00;97576.06;5049030;28;20983;-83
2023/12/28 07:41:06;;;;;;;1.85;1.70;;;;;;;4.65;100.00;97566.63;5062964;28;20766;-84
2023/12/28 07:43:33;;;;;;;4.05;1.88;;;;;;;4.66;100.00;97570.03;5036943;28;20396;-84
2023/12/28 07:45:59;;;;;;;1.70;1.60;;;;;;;4.66;100.00;97567.41;5034929;28;20407;-84
2023/12/28 07:48:26;;;;;;;2.10;1.90;;;;;;;4.67;100.00;97572.44;5035294;28;20808;-84
2023/12/28 07:50:52;;;;;;;2.17;1.77;;;;;;;4.67;100.00;97579.50;5048541;28;20432;-84
2023/12/28 07:53:18;;;;;;;2.30;1.80;;;;;;;4.66;100.00;97581.31;5055731;28;20393;-84
2023/12/28 07:55:44;;;;;;;1.90;1.80;;;;;;;4.65;100.00;97592.84;5062740;28;20413;-83
2023/12/28 07:58:11;;;;;;;2.90;2.13;;;;;;;4.66;100.00;97596.25;5059990;28;20419;-83
2023/12/28 08:00:37;;;;;;;2.50;2.30;;;;;;;4.67;100.00;97587.34;5062781;28;20392;-84
2023/12/28 08:03:03;;;;;;;2.13;1.93;;;;;;;4.70;100.00;97594.00;5069254;28;20406;-83
2023/12/28 08:05:31;;;;;;;2.67;1.90;;;;;;;4.73;100.00;97596.22;5064872;28;20400;-84
2023/12/28 08:07:57;;;;;;;2.30;2.03;;;;;;;4.77;100.00;97589.53;5069850;28;20550;-84
2023/12/28 08:10:23;;;;;;;2.95;2.20;;;;;;;4.80;100.00;97594.38;5066084;28;20409;-83
2023/12/28 08:12:49;;;;;;;2.17;1.90;;;;;;;4.84;100.00;97598.19;5054403;28;20401;-84
2023/12/28 08:15:15;;;;;;;2.08;1.85;;;;;;;4.87;100.00;97593.34;5060787;28;20391;-83
2023/12/28 08:17:41;;;;;;;2.30;2.00;;;;;;;4.91;100.00;97604.19;5069710;28;20415;-84
2023/12/28 08:20:08;;;;;;;2.00;1.80;;;;;;;4.94;100.00;97594.09;5053817;28;20444;-84
2023/12/28 08:22:36;;;;;;;2.47;2.10;;;;;;;4.97;100.00;97598.91;5053766;28;20389;-83
2023/12/28 08:25:02;;;;;;;1.80;1.70;;;;;;;5.00;100.00;97595.06;5067250;28;20840;-84
2023/12/28 08:27:28;;;;;;;2.90;2.03;;;;;;;5.02;100.00;97601.72;5074025;28;20403;-84
2023/12/28 08:29:54;;;;;;;2.00;1.80;;;;;;;5.04;100.00;97594.44;5059013;28;20400;-83
2023/12/28 08:32:20;;;;;;;2.00;1.80;;;;;;;5.07;100.00;97599.28;5063051;28;20807;-83
2023/12/28 08:34:47;;;;;;;2.30;1.77;;;;;;;5.09;100.00;97591.19;5065546;28;20489;-83
2023/12/28 08:37:14;;;;;;;2.00;1.80;;;;;;;5.12;100.00;97608.31;5052383;28;20450;-83
2023/12/28 08:39:41;;;;;;;7.43;2.42;;;;;;;5.11;100.00;97601.50;5070007;28;20896;-83
2023/12/28 08:42:07;;;;;;;5.88;2.20;;;;;;;5.16;100.00;97605.09;5059223;28;20394;-83
2023/12/28 08:44:34;;;;;;;2.15;1.90;;;;;;;5.21;100.00;97614.94;5071281;28;20425;-83
2023/12/28 08:47:02;;;;;;;2.15;1.95;;;;;;;5.26;100.00;97608.03;5053290;28;20409;-83
2023/12/28 08:49:29;;;;;;;2.63;2.22;;;;;;;5.30;100.00;97603.97;5057447;28;20418;-83
2023/12/28 08:51:55;;;;;;;2.15;1.90;;;;;;;5.34;100.00;97605.16;5053673;28;20806;-83
2023/12/28 08:54:21;;;;;;;2.08;1.88;;;;;;;5.41;100.00;97597.25;5062924;28;20391;-83
2023/12/28 08:56:49;;;;;;;2.83;2.05;;;;;;;5.48;100.00;97594.59;5073463;28;20406;-83
2023/12/28 08:59:15;;;;;;;2.20;2.00;;;;;;;5.56;100.00;97599.56;5062074;28;20425;-85
2023/12/28 09:01:41;;;;;;;2.58;2.08;;;;;;;5.61;100.00;97587.41;5057128;28;20443;-84
2023/12/28 09:04:07;;;;;;;4.43;2.63;;;;;;;5.65;100.00;97585.94;5057676;28;20394;-83
2023/12/28 09:06:35;;;;;;;3.33;2.28;;;;;;;5.71;100.00;97582.44;5059257;28;20447;-84
2023/12/28 09:09:01;;;;;;;3.85;2.65;;;;;;;5.76;100.00;97587.88;5067121;28;20404;-84
2023/12/28 09:11:28;;;;;;;2.72;2.15;;;;;;;5.82;100.00;97580.97;5065021;28;20423;-84
2023/12/28 09:13:56;;;;;;;2.95;2.40;;;;;;;5.83;100.00;97586.00;5066194;28;20480;-84
2023/12/28 09:16:22;;;;;;;14.57;3.08;;;;;;;5.86;100.00;97571.66;5068157;28;20401;-83
2023/12/28 09:18:48;;;;;;;2.28;2.08;;;;;;;5.90;100.00;97578.09;5065946;28;20420;-84
2023/12/28 09:21:15;;;;;;;3.67;2.20;;;;;;;5.95;100.00;97582.69;5064801;28;20397;-84
2023/12/28 09:23:41;;;;;;;4.40;2.30;;;;;;;5.99;100.00;97584.69;5066445;28;20497;-84
2023/12/28 09:26:07;;;;;;;5.70;2.50;;;;;;;6.01;100.00;97587.09;5068996;28;20396;-84
2023/12/28 09:28:34;;;;;;;2.40;1.90;;;;;;;6.11;100.00;97596.06;5079405;28;20444;-85
2023/12/28 09:31:02;;;;;;;2.88;2.10;;;;;;;6.16;100.00;97604.09;5072569;28;20402;-85
2023/12/28 09:33:28;;;;;;;3.75;2.20;;;;;;;6.32;100.00;97601.91;5068321;28;20391;-86
2023/12/28 09:35:55;;;;;;;4.47;2.10;;;;;;;6.43;100.00;97604.66;5071643;28;20852;-84
2023/12/28 09:38:22;;;;;;;4.05;2.30;;;;;;;6.64;100.00;97595.50;5065862;28;20906;-85
2023/12/28 09:40:51;;;;;;;2.70;1.98;;;;;;;6.81;100.00;97603.59;5061913;28;20401;-84
2023/12/28 09:43:23;;;;;;;3.60;2.10;;;;;;;6.91;100.00;97606.53;5062095;28;20397;-84
2023/12/28 09:45:50;;;;;;;3.13;2.13;;;;;;;6.94;100.00;97606.06;5073385;28;20399;-85
2023/12/28 09:48:19;;;;;;;3.38;2.20;;;;;;;7.04;100.00;97611.59;5058764;28;20415;-84
2023/12/28 09:50:45;;;;;;;2.67;2.00;;;;;;;7.16;100.00;97611.63;5067518;28;20405;-85
2023/12/28 09:53:12;;;;;;;3.40;2.70;;;;;;;7.24;100.00;97617.41;5058617;28;20393;-85
2023/12/28 09:55:39;;;;;;;2.50;2.08;;;;;;;7.22;100.00;97613.38;5066523;28;20432;-85
2023/12/28 09:58:06;;;;;;;2.60;1.90;;;;;;;7.30;100.00;97605.97;5068474;28;20789;-85
2023/12/28 10:00:33;;;;;;;3.00;2.20;;;;;;;7.29;100.00;97606.22;5068833;28;20400;-86
2023/12/28 10:02:59;;;;;;;3.00;1.80;;;;;;;7.29;100.00;97606.97;5075575;28;20397;-85
2023/12/28 10:05:26;;;;;;;3.53;2.00;;;;;;;7.26;100.00;97615.34;5078267;28;20404;-85
2023/12/28 10:07:55;;;;;;;3.45;2.03;;;;;;;7.27;100.00;97616.97;5084122;28;20408;-85
2023/12/28 10:10:22;;;;;;;2.05;1.80;;;;;;;7.30;100.00;97608.59;5070704;28;20399;-84
2023/12/28 10:12:48;;;;;;;2.95;2.35;;;;;;;7.27;100.00;97616.16;5062352;28;20406;-83
2023/12/28 10:15:14;;;;;;;3.60;2.13;;;;;;;7.31;100.00;97619.94;5064354;28;20401;-83
2023/12/28 10:17:41;;;;;;;2.80;2.10;;;;;;;7.34;100.00;97608.97;5060788;28;20467;-83
2023/12/28 10:20:09;;;;;;;3.73;2.60;;;;;;;7.42;100.00;97598.09;5064139;28;20890;-83
2023/12/28 10:22:37;;;;;;;3.58;2.28;;;;;;;7.45;100.00;97605.53;5059821;28;20417;-84
2023/12/28 10:25:04;;;;;;;3.75;2.42;;;;;;;7.47;100.00;97607.97;5065918;28;20768;-83
2023/12/28 10:27:30;;;;;;;3.50;2.00;;;;;;;7.60;100.00;97603.28;5060880;28;20889;-84
2023/12/28 10:29:57;;;;;;;2.92;1.90;;;;;;;7.66;100.00;97596.34;5067247;28;20761;-83
2023/12/28 10:32:24;;;;;;;4.43;2.08;;;;;;;7.67;100.00;97592.63;5068360;28;20388;-83
2023/12/28 10:34:52;;;;;;;3.35;2.10;;;;;;;7.71;100.00;97596.44;5055413;28;20416;-84
2023/12/28 10:37:20;;;;;;;2.28;2.00;;;;;;;7.76;100.00;97602.63;5059005;28;20801;-83
2023/12/28 10:39:51;;;;;;;1.75;1.60;;;;;;;7.78;100.00;97597.13;5061057;28;20786;-83
2023/12/28 10:42:24;;;;;;;4.57;2.00;;;;;;;7.84;100.00;97590.16;5071186;28;20465;-84
2023/12/28 10:44:55;;;;;;;3.97;1.90;;;;;;;7.92;100.00;97584.53;5065055;28;20391;-84
2023/12/28 10:47:24;;;;;;;2.88;1.90;;;;;;;8.01;100.00;97588.44;5067461;28;20407;-83
2023/12/28 10:49:55;;;;;;;2.30;1.70;;;;;;;8.06;100.00;97591.19;5058605;28;20524;-83
2023/12/28 10:52:26;;;;;;;3.47;1.95;;;;;;;8.15;100.00;97581.91;5060035;28;20477;-83
2023/12/28 10:55:03;;;;;;;2.22;1.63;;;;;;;8.25;100.00;97582.13;5061350;28;20897;-83
2023/12/28 10:57:33;;;;;;;1.73;1.63;;;;;;;8.32;100.00;97592.59;5053848;28;20805;-83
2023/12/28 11:00:08;;;;;;;2.38;1.70;;;;;;;8.32;100.00;97576.75;5056458;28;20408;-82
2023/12/28 11:02:41;;;;;;;2.70;2.03;;;;;;;8.32;100.00;97566.22;5058759;28;20435;-82
2023/12/28 11:05:08;;;;;;;2.20;1.75;;;;;;;8.36;100.00;97573.41;5054993;28;20440;-83
2023/12/28 11:07:36;;;;;;;1.95;1.50;;;;;;;8.34;100.00;97577.34;5057271;28;20415;-82
2023/12/28 11:10:06;;;;;;;1.70;1.50;;;;;;;8.33;100.00;97568.63;5059313;28;20449;-81
2023/12/28 11:12:33;;;;;;;1.58;1.48;;;;;;;8.33;100.00;97571.25;5055925;28;20427;-80
2023/12/28 11:15:01;;;;;;;1.67;1.57;;;;;;;8.30;100.00;97569.03;5060919;28;20404;-80
2023/12/28 11:17:29;;;;;;;2.13;1.50;;;;;;;8.26;100.00;97567.91;5061056;28;20501;-81
2023/12/28 11:19:56;;;;;;;1.50;1.40;;;;;;;8.23;100.00;97565.72;5067952;28;20504;-79
2023/12/28 11:22:23;;;;;;;1.60;1.50;;;;;;;8.21;100.00;97561.72;5065676;28;20490;-81
2023/12/28 11:24:53;;;;;;;1.70;1.50;;;;;;;8.18;100.00;97555.09;5063627;28;20459;-81
2023/12/28 11:27:21;;;;;;;1.65;1.42;;;;;;;8.16;100.00;97555.31;5063643;28;20764;-80
2023/12/28 11:29:48;;;;;;;2.00;1.70;;;;;;;8.21;100.00;97556.44;5064179;28;20437;-80
2023/12/28 11:32:14;;;;;;;2.08;1.60;;;;;;;8.21;100.00;97551.16;5060841;28;20569;-80